Time;durP1;ratioP1;P1;durP2;ratioP2;P2;SDS_P1;SDS_P2;PMS_P1;PMS_P2;Temp;Humidity;BMP_temperature;BMP_pressure;BME280_temperature;BME280_humidity;BME280_pressure;Samples;Min_cycle;Max_cycle;Signal;HPM_P1;HPM_P2
2021/09/30 00:00:01;;;;;;;8.50;5.85;;;12.90;69.50;;;;;;5027128;28;20369;-49
2021/09/30 00:02:27;;;;;;;8.25;6.00;;;13.00;69.70;;;;;;5028814;28;20033;-51
2021/09/30 00:04:54;;;;;;;7.70;5.85;;;13.00;69.70;;;;;;5031105;28;20021;-50
2021/09/30 00:07:19;;;;;;;6.78;5.70;;;13.00;69.60;;;;;;5031709;28;20036;-49
2021/09/30 00:09:47;;;;;;;6.88;5.63;;;12.90;69.30;;;;;;5032365;28;20029;-50
2021/09/30 00:12:20;;;;;;;7.32;5.60;;;12.90;69.10;;;;;;5022449;28;20065;-51
2021/09/30 00:14:52;;;;;;;8.48;6.07;;;12.90;69.00;;;;;;5029286;28;20029;-50
2021/09/30 00:46:51;;;;;;;5.75;4.32;;;12.90;68.80;;;;;;5036324;28;20037;-49
2021/09/30 00:52:27;;;;;;;5.20;4.00;;;12.90;68.50;;;;;;5005182;28;20041;-49
2021/09/30 03:00:30;;;;;;;7.88;6.13;;;12.90;68.10;;;;;;5020797;28;20036;-50
2021/09/30 03:02:59;;;;;;;6.70;5.60;;;12.90;68.00;;;;;;5025217;28;20104;-50
2021/09/30 03:05:25;;;;;;;7.22;6.10;;;12.90;68.20;;;;;;5029446;28;20468;-50
2021/09/30 03:07:54;;;;;;;8.07;6.20;;;12.90;68.10;;;;;;5033128;28;20082;-50
2021/09/30 03:10:24;;;;;;;7.13;6.13;;;12.90;68.10;;;;;;5030760;28;20021;-50
2021/09/30 03:12:52;;;;;;;7.22;5.45;;;12.90;68.10;;;;;;5018345;28;20025;-50
2021/09/30 03:15:31;;;;;;;6.40;5.22;;;12.90;68.10;;;;;;5032526;28;20113;-49
2021/09/30 03:23:11;;;;;;;6.53;5.53;;;12.90;68.10;;;;;;5031673;28;20382;-49
2021/09/30 03:25:38;;;;;;;7.13;5.35;;;12.80;68.10;;;;;;5027819;28;20100;-49
2021/09/30 03:28:05;;;;;;;8.75;6.03;;;12.80;68.10;;;;;;5032470;28;20074;-49
2021/09/30 03:30:32;;;;;;;7.18;5.82;;;12.80;68.10;;;;;;5031491;28;20017;-50
2021/09/30 03:33:06;;;;;;;7.03;5.70;;;12.80;68.20;;;;;;5032120;28;20480;-50
2021/09/30 03:35:32;;;;;;;8.07;6.47;;;12.80;68.20;;;;;;5019836;28;20033;-50
2021/09/30 03:38:00;;;;;;;7.00;5.60;;;12.80;68.20;;;;;;5032608;28;20053;-50
2021/09/30 03:40:26;;;;;;;6.93;5.65;;;12.80;68.20;;;;;;5032702;28;20545;-50
2021/09/30 03:42:51;;;;;;;5.75;4.82;;;12.80;68.40;;;;;;5032760;28;20104;-52
2021/09/30 03:45:17;;;;;;;7.00;5.13;;;12.80;68.10;;;;;;5042830;28;20044;-50
2021/09/30 03:47:43;;;;;;;6.60;5.57;;;12.80;68.20;;;;;;5031648;28;20029;-50
2021/09/30 03:50:15;;;;;;;6.72;5.78;;;12.80;68.10;;;;;;5025497;28;20025;-50
2021/09/30 03:53:19;;;;;;;6.43;5.25;;;12.80;68.20;;;;;;5032270;28;20040;-51
2021/09/30 04:01:00;;;;;;;6.72;5.07;;;12.80;68.00;;;;;;5032537;28;20067;-51
2021/09/30 04:03:26;;;;;;;7.07;4.65;;;12.80;67.90;;;;;;5032578;28;20496;-50
2021/09/30 04:05:52;;;;;;;5.88;5.22;;;12.80;67.80;;;;;;5032440;28;20139;-49
2021/09/30 04:08:17;;;;;;;7.15;5.57;;;12.80;67.80;;;;;;5020699;28;20065;-50
2021/09/30 04:10:43;;;;;;;7.10;5.40;;;12.80;67.70;;;;;;5030188;28;20018;-50
2021/09/30 04:13:09;;;;;;;7.03;5.30;;;12.80;67.70;;;;;;5030307;28;20029;-50
2021/09/30 04:15:34;;;;;;;6.40;5.43;;;12.90;67.80;;;;;;5036599;28;20041;-50
2021/09/30 04:18:00;;;;;;;6.43;4.93;;;12.90;67.70;;;;;;5032811;28;20033;-50
2021/09/30 04:20:27;;;;;;;8.40;5.80;;;12.90;67.80;;;;;;5036089;28;20042;-49
2021/09/30 04:22:53;;;;;;;5.63;5.03;;;12.90;67.80;;;;;;5035933;28;20036;-50
2021/09/30 04:25:19;;;;;;;7.57;5.65;;;12.90;67.70;;;;;;5039093;28;20449;-50
2021/09/30 04:27:45;;;;;;;7.38;5.32;;;12.90;67.60;;;;;;5035918;28;20091;-49
2021/09/30 04:30:11;;;;;;;7.90;4.80;;;12.90;67.50;;;;;;5035787;28;20021;-49
2021/09/30 04:32:37;;;;;;;8.10;5.47;;;12.90;68.20;;;;;;5032672;28;20044;-50
2021/09/30 04:35:03;;;;;;;7.15;5.78;;;12.90;67.40;;;;;;5039069;28;20477;-50
2021/09/30 04:37:29;;;;;;;7.25;5.32;;;12.80;67.30;;;;;;5035629;28;20060;-49
2021/09/30 04:39:55;;;;;;;6.95;5.22;;;12.80;67.40;;;;;;5031423;28;20413;-50
2021/09/30 04:42:21;;;;;;;6.32;5.65;;;12.80;67.50;;;;;;5034453;28;20071;-57
2021/09/30 04:44:47;;;;;;;7.13;5.70;;;12.80;67.40;;;;;;5035547;28;20083;-55
2021/09/30 04:47:13;;;;;;;7.93;6.25;;;12.80;67.30;;;;;;5018617;28;20543;-59
2021/09/30 04:49:39;;;;;;;10.07;6.20;;;12.70;67.10;;;;;;5032739;28;20104;-57
2021/09/30 04:52:05;;;;;;;9.27;6.75;;;12.60;67.30;;;;;;5032015;28;20032;-59
2021/09/30 04:54:30;;;;;;;8.02;6.50;;;12.40;67.20;;;;;;5035309;28;20067;-57
2021/09/30 04:56:56;;;;;;;8.25;6.63;;;12.30;68.10;;;;;;5029705;28;20118;-56
2021/09/30 04:59:22;;;;;;;7.10;6.40;;;12.20;67.70;;;;;;5035492;28;20164;-55
2021/09/30 05:01:47;;;;;;;6.85;5.28;;;12.10;68.20;;;;;;5034553;28;20014;-49
2021/09/30 05:04:13;;;;;;;5.47;4.57;;;12.10;68.60;;;;;;5032869;28;20034;-52
2021/09/30 05:06:38;;;;;;;6.75;5.40;;;12.10;68.50;;;;;;5032722;28;20021;-49
2021/09/30 05:09:04;;;;;;;6.90;4.80;;;12.10;68.20;;;;;;5018773;28;20053;-49
2021/09/30 05:11:40;;;;;;;6.00;4.95;;;12.10;68.10;;;;;;5034374;28;20033;-49
2021/09/30 05:14:06;;;;;;;6.97;5.35;;;12.20;68.10;;;;;;5028647;28;20482;-49
2021/09/30 05:16:31;;;;;;;7.57;4.93;;;12.20;67.80;;;;;;5028451;28;20052;-49
2021/09/30 05:18:57;;;;;;;6.20;4.97;;;12.20;67.80;;;;;;5032358;28;20026;-50
2021/09/30 05:21:24;;;;;;;6.50;5.57;;;12.20;68.10;;;;;;5033709;28;20362;-49
2021/09/30 05:23:51;;;;;;;7.65;5.15;;;12.30;68.20;;;;;;5032618;28;20026;-50
2021/09/30 05:26:17;;;;;;;6.78;5.13;;;12.30;68.10;;;;;;5032538;28;20041;-49
2021/09/30 05:28:42;;;;;;;5.70;4.32;;;12.40;68.00;;;;;;5031633;28;20029;-50
2021/09/30 05:31:08;;;;;;;6.63;4.43;;;12.50;67.80;;;;;;5026234;28;20037;-49
2021/09/30 05:33:33;;;;;;;5.88;4.20;;;12.60;67.80;;;;;;5027064;28;20036;-49
2021/09/30 05:35:59;;;;;;;4.95;3.85;;;12.60;67.50;;;;;;5033506;28;20058;-50
2021/09/30 05:38:25;;;;;;;5.50;4.25;;;12.70;67.80;;;;;;5036374;28;20075;-50
2021/09/30 05:40:52;;;;;;;6.07;4.80;;;12.80;67.50;;;;;;5039114;28;20426;-49
2021/09/30 05:43:28;;;;;;;5.32;4.18;;;12.90;67.40;;;;;;5036166;28;20487;-51
2021/09/30 05:45:56;;;;;;;4.85;4.32;;;12.90;67.30;;;;;;5036968;28;20036;-49
2021/09/30 05:48:22;;;;;;;5.70;4.38;;;13.00;67.10;;;;;;5027492;28;20037;-49
2021/09/30 05:50:55;;;;;;;5.68;4.00;;;13.00;66.90;;;;;;5027694;28;20021;-49
2021/09/30 05:53:21;;;;;;;6.97;4.78;;;13.00;67.10;;;;;;5030684;28;20091;-49
2021/09/30 05:55:47;;;;;;;5.50;4.15;;;13.10;67.30;;;;;;5030502;28;20033;-50
2021/09/30 05:58:13;;;;;;;4.18;3.67;;;13.30;67.10;;;;;;5023257;28;20358;-50
2021/09/30 06:16:25;;;;;;;4.60;3.88;;;14.30;64.40;;;;;;5025662;28;20453;-51
2021/09/30 06:18:51;;;;;;;6.32;3.92;;;14.40;64.20;;;;;;5030548;28;20120;-50
2021/09/30 06:21:17;;;;;;;5.65;4.00;;;14.40;64.70;;;;;;5027871;28;20112;-51
2021/09/30 06:23:43;;;;;;;4.07;3.50;;;14.30;63.90;;;;;;5034149;28;20030;-51
2021/09/30 06:26:08;;;;;;;4.65;3.78;;;14.20;63.90;;;;;;5031589;28;20030;-53
2021/09/30 06:28:34;;;;;;;6.55;3.90;;;14.20;63.80;;;;;;5025647;28;20025;-50
2021/09/30 06:31:00;;;;;;;4.50;3.60;;;14.20;63.80;;;;;;5023124;28;20033;-51
2021/09/30 06:33:26;;;;;;;6.50;4.43;;;14.10;63.80;;;;;;5024894;28;20512;-50
2021/09/30 06:35:52;;;;;;;4.88;3.97;;;14.10;63.70;;;;;;5020175;28;20556;-50
2021/09/30 06:38:18;;;;;;;5.82;3.80;;;14.00;63.30;;;;;;5021485;28;22008;-50
2021/09/30 06:40:45;;;;;;;5.75;4.18;;;14.00;63.50;;;;;;5015720;28;20053;-50
2021/09/30 06:43:11;;;;;;;5.65;4.00;;;13.90;63.80;;;;;;5020776;28;20045;-50
2021/09/30 06:45:37;;;;;;;4.78;3.90;;;13.90;63.90;;;;;;5018991;28;20037;-50
2021/09/30 06:48:03;;;;;;;4.03;3.55;;;13.90;63.90;;;;;;5023075;28;20043;-53
2021/09/30 06:50:29;;;;;;;4.47;3.78;;;13.90;63.90;;;;;;5022056;28;20070;-52
2021/09/30 06:52:55;;;;;;;4.78;3.70;;;14.00;64.00;;;;;;5021908;28;20115;-50
2021/09/30 06:55:20;;;;;;;5.72;4.13;;;14.00;63.60;;;;;;5020369;28;20048;-52
2021/09/30 06:57:47;;;;;;;5.90;4.10;;;14.00;63.70;;;;;;5021869;28;20033;-50
2021/09/30 07:00:13;;;;;;;5.60;4.03;;;14.00;63.60;;;;;;5022371;28;20104;-49
2021/09/30 07:02:41;;;;;;;4.75;3.83;;;14.00;63.60;;;;;;5019756;28;20033;-52
2021/09/30 07:05:09;;;;;;;4.90;3.85;;;14.00;63.50;;;;;;5010284;28;20038;-49
2021/09/30 07:07:36;;;;;;;4.53;3.65;;;14.00;63.40;;;;;;5015412;28;20061;-52
2021/09/30 07:10:03;;;;;;;4.65;3.72;;;14.00;63.40;;;;;;5014658;28;20052;-50
2021/09/30 07:12:29;;;;;;;6.55;4.10;;;14.00;63.20;;;;;;5020582;28;20037;-51
2021/09/30 07:14:54;;;;;;;5.25;3.70;;;14.10;63.10;;;;;;5022374;28;20083;-50
2021/09/30 07:17:21;;;;;;;5.38;3.80;;;14.10;62.80;;;;;;5021054;28;20034;-50
2021/09/30 07:19:46;;;;;;;4.57;3.80;;;14.10;62.80;;;;;;5017730;28;20359;-51
2021/09/30 07:22:12;;;;;;;7.35;3.78;;;14.10;62.90;;;;;;5010919;28;20029;-50
2021/09/30 07:24:38;;;;;;;5.10;4.00;;;14.10;62.80;;;;;;5014463;28;20760;-50
2021/09/30 07:27:08;;;;;;;5.55;3.72;;;14.20;62.70;;;;;;4994847;28;20112;-51
2021/09/30 07:29:34;;;;;;;5.32;3.53;;;14.20;62.70;;;;;;5010513;28;20042;-51
2021/09/30 07:32:00;;;;;;;4.90;3.92;;;14.20;62.50;;;;;;5005910;28;20452;-53
2021/09/30 07:34:26;;;;;;;4.70;3.90;;;14.20;62.40;;;;;;5004060;28;20049;-51
2021/09/30 07:36:52;;;;;;;5.13;3.95;;;14.20;62.50;;;;;;5005074;28;20065;-49
2021/09/30 07:39:18;;;;;;;4.28;3.30;;;14.20;62.20;;;;;;5008872;28;20489;-49
2021/09/30 07:41:46;;;;;;;4.15;3.38;;;14.20;62.20;;;;;;5007914;28;20037;-50
2021/09/30 07:44:13;;;;;;;3.85;3.42;;;14.30;62.10;;;;;;5013549;28;21940;-50
2021/09/30 07:46:41;;;;;;;5.32;3.50;;;14.30;62.00;;;;;;5017677;28;20931;-49
2021/09/30 07:49:07;;;;;;;3.58;3.22;;;14.30;61.80;;;;;;5003253;28;20038;-50
2021/09/30 07:51:34;;;;;;;3.78;3.30;;;14.30;61.70;;;;;;5001965;28;20042;-49
2021/09/30 07:54:00;;;;;;;4.18;3.78;;;14.30;61.70;;;;;;5002141;28;20029;-52
2021/09/30 07:56:27;;;;;;;3.70;3.35;;;14.30;61.80;;;;;;5004213;28;20175;-50
2021/09/30 07:58:53;;;;;;;4.60;3.67;;;14.40;62.10;;;;;;5011282;28;20030;-50
2021/09/30 08:01:20;;;;;;;4.60;3.30;;;14.40;61.70;;;;;;5011575;28;20501;-51
2021/09/30 08:03:46;;;;;;;4.80;3.50;;;14.40;61.70;;;;;;5009708;28;20033;-52
2021/09/30 08:06:12;;;;;;;9.45;3.25;;;14.50;61.70;;;;;;5008075;28;20037;-49
2021/09/30 08:08:38;;;;;;;3.97;3.50;;;14.50;61.40;;;;;;5007877;28;20028;-52
2021/09/30 08:11:03;;;;;;;4.78;3.60;;;14.50;61.50;;;;;;5009467;28;20094;-49
2021/09/30 08:13:31;;;;;;;4.22;3.30;;;14.50;61.20;;;;;;5012188;28;20792;-49
2021/09/30 08:15:57;;;;;;;4.20;3.35;;;14.50;61.10;;;;;;5008174;28;20033;-51
2021/09/30 08:18:23;;;;;;;4.20;3.00;;;14.50;61.20;;;;;;5012789;28;20030;-52
2021/09/30 08:20:49;;;;;;;4.15;3.33;;;14.50;61.50;;;;;;5008535;28;20108;-52
2021/09/30 08:23:16;;;;;;;4.13;2.97;;;14.50;61.40;;;;;;5009846;28;20033;-52
2021/09/30 08:25:42;;;;;;;4.82;3.22;;;14.60;61.50;;;;;;5012927;28;20029;-51
2021/09/30 08:28:08;;;;;;;3.25;2.92;;;14.60;61.30;;;;;;5013154;28;20032;-50
2021/09/30 08:30:35;;;;;;;4.50;3.33;;;14.60;61.30;;;;;;4995596;28;20033;-50
2021/09/30 08:33:01;;;;;;;4.05;3.10;;;14.60;61.20;;;;;;5006204;28;20038;-50
2021/09/30 08:35:27;;;;;;;5.40;3.35;;;14.60;60.90;;;;;;5000057;28;20061;-51
2021/09/30 08:37:52;;;;;;;7.55;3.30;;;14.60;60.70;;;;;;5000889;28;20048;-50
2021/09/30 08:40:18;;;;;;;3.58;3.25;;;14.60;60.60;;;;;;5003126;28;20026;-50
2021/09/30 08:42:47;;;;;;;4.53;3.38;;;14.60;60.50;;;;;;5005882;28;20025;-50
2021/09/30 08:45:20;;;;;;;3.80;3.17;;;14.60;60.40;;;;;;5005522;28;20037;-52
2021/09/30 08:48:03;;;;;;;3.17;2.88;;;14.60;60.50;;;;;;5003934;28;20040;-49
2021/09/30 08:50:33;;;;;;;4.43;3.20;;;14.60;60.50;;;;;;5005948;28;20033;-50
2021/09/30 08:53:01;;;;;;;3.47;3.10;;;14.60;60.10;;;;;;5002436;28;20091;-51
2021/09/30 08:55:26;;;;;;;5.47;3.28;;;14.60;59.80;;;;;;5002473;28;20449;-51
2021/09/30 08:57:52;;;;;;;3.83;3.08;;;14.50;59.50;;;;;;5008497;28;20030;-49
2021/09/30 09:00:20;;;;;;;4.15;3.20;;;14.50;59.30;;;;;;5004334;28;20104;-51
2021/09/30 09:02:52;;;;;;;3.47;3.10;;;14.50;59.30;;;;;;5007498;28;20773;-50
2021/09/30 09:05:18;;;;;;;3.35;2.90;;;14.40;59.50;;;;;;5009817;28;20112;-49
2021/09/30 09:08:02;;;;;;;3.92;3.03;;;14.40;59.50;;;;;;5007692;28;20029;-49
2021/09/30 09:10:39;;;;;;;4.72;3.15;;;14.40;59.60;;;;;;5012868;28;20033;-49
2021/09/30 09:13:14;;;;;;;3.78;2.88;;;14.50;59.70;;;;;;5011394;28;20025;-52
2021/09/30 09:15:39;;;;;;;3.65;2.80;;;14.50;59.60;;;;;;5009411;28;20034;-49
2021/09/30 09:18:19;;;;;;;3.88;3.42;;;14.50;59.60;;;;;;5010509;28;20037;-50
2021/09/30 09:20:47;;;;;;;5.65;3.80;;;14.50;59.20;;;;;;5004906;28;20505;-50
2021/09/30 09:23:13;;;;;;;3.67;3.05;;;14.50;59.80;;;;;;5009406;28;20446;-49
2021/09/30 09:25:39;;;;;;;4.05;3.47;;;14.40;59.00;;;;;;5012493;28;20477;-49
2021/09/30 09:28:05;;;;;;;3.97;3.40;;;14.40;58.90;;;;;;5007224;28;20030;-49
2021/09/30 09:30:40;;;;;;;4.93;3.45;;;14.30;58.90;;;;;;5004541;28;20037;-49
2021/09/30 09:33:13;;;;;;;5.00;3.40;;;14.30;58.90;;;;;;5005320;28;20143;-49
2021/09/30 09:36:03;;;;;;;5.03;3.35;;;14.20;59.20;;;;;;5006881;28;20033;-49
2021/09/30 09:38:50;;;;;;;4.13;3.20;;;14.20;59.80;;;;;;5006339;28;20069;-49
2021/09/30 09:41:23;;;;;;;5.43;3.88;;;14.20;59.30;;;;;;5001860;28;20041;-48
2021/09/30 09:43:49;;;;;;;4.22;3.47;;;14.20;59.50;;;;;;5010054;28;20023;-50
2021/09/30 09:46:18;;;;;;;4.30;3.58;;;14.20;59.30;;;;;;5010011;28;20033;-49
2021/09/30 09:49:01;;;;;;;4.60;3.58;;;14.20;59.30;;;;;;5007201;28;20072;-49
2021/09/30 09:51:37;;;;;;;3.97;3.20;;;14.20;59.30;;;;;;5006003;28;20033;-50
2021/09/30 09:54:11;;;;;;;4.07;3.50;;;14.20;59.50;;;;;;5003249;28;20030;-49
2021/09/30 09:56:37;;;;;;;6.10;3.60;;;14.20;59.50;;;;;;4999271;28;20033;-52
2021/09/30 09:59:03;;;;;;;4.95;3.58;;;14.20;60.00;;;;;;4999947;28;20481;-49
2021/09/30 10:01:41;;;;;;;6.10;3.30;;;14.20;59.10;;;;;;5003543;28;20026;-49
2021/09/30 10:04:07;;;;;;;3.45;3.15;;;14.20;59.30;;;;;;5002928;28;20568;-48
2021/09/30 10:06:34;;;;;;;4.38;3.65;;;14.20;59.30;;;;;;5004249;28;20473;-49
2021/09/30 10:09:02;;;;;;;3.78;2.95;;;14.20;59.10;;;;;;5006831;28;20041;-48
2021/09/30 10:11:28;;;;;;;2.95;2.72;;;14.20;59.20;;;;;;5007959;28;20488;-49
2021/09/30 10:14:00;;;;;;;4.47;3.22;;;14.10;58.60;;;;;;5008520;28;20057;-49
2021/09/30 10:16:27;;;;;;;4.28;3.88;;;14.20;58.90;;;;;;4990477;28;20684;-49
2021/09/30 10:18:55;;;;;;;4.00;3.30;;;14.10;58.50;;;;;;5008629;28;20033;-51
2021/09/30 10:21:22;;;;;;;11.73;3.53;;;14.10;58.50;;;;;;5009752;28;20025;-49
2021/09/30 10:24:02;;;;;;;4.75;3.00;;;14.10;58.70;;;;;;5010224;28;20902;-51
2021/09/30 10:26:29;;;;;;;3.83;3.15;;;14.10;58.70;;;;;;5012723;28;20041;-51
2021/09/30 10:28:55;;;;;;;4.05;3.40;;;14.10;58.90;;;;;;5008104;28;20032;-49
2021/09/30 10:31:28;;;;;;;4.10;3.33;;;14.10;58.70;;;;;;5010092;28;20029;-49
2021/09/30 10:33:56;;;;;;;5.20;3.20;;;14.10;58.80;;;;;;5011475;28;20064;-49
2021/09/30 10:36:36;;;;;;;3.78;3.00;;;14.10;58.70;;;;;;5011669;28;20041;-49
2021/09/30 10:39:14;;;;;;;5.25;3.47;;;14.10;58.70;;;;;;5014354;28;20046;-52
2021/09/30 10:41:40;;;;;;;4.35;3.38;;;14.20;58.80;;;;;;5011791;28;20037;-52
2021/09/30 10:44:18;;;;;;;4.63;3.47;;;14.20;58.90;;;;;;5008733;28;20049;-52
2021/09/30 10:46:45;;;;;;;4.22;3.33;;;14.20;58.60;;;;;;5008562;28;20029;-50
2021/09/30 10:49:31;;;;;;;4.00;3.50;;;14.20;58.60;;;;;;5009683;28;20106;-53
2021/09/30 10:52:29;;;;;;;5.32;3.92;;;14.20;58.50;;;;;;5012244;28;20485;-50
2021/09/30 10:55:05;;;;;;;4.95;3.83;;;14.20;58.50;;;;;;5003671;28;21615;-51
2021/09/30 10:57:40;;;;;;;4.28;3.35;;;14.20;58.30;;;;;;5002647;28;21197;-52
2021/09/30 11:00:12;;;;;;;4.95;3.63;;;14.20;58.40;;;;;;4992992;28;20034;-53
2021/09/30 11:02:59;;;;;;;4.63;3.60;;;14.20;58.20;;;;;;4997817;28;20568;-53
2021/09/30 11:05:25;;;;;;;4.88;3.47;;;14.10;58.00;;;;;;5001797;28;20034;-50
2021/09/30 11:08:30;;;;;;;5.03;3.50;;;14.10;58.30;;;;;;5004227;28;20053;-49
2021/09/30 11:11:11;;;;;;;4.28;3.58;;;14.10;58.10;;;;;;5000928;28;20167;-51
2021/09/30 11:13:55;;;;;;;5.68;3.90;;;14.10;58.20;;;;;;5004698;28;20048;-52
2021/09/30 11:16:33;;;;;;;3.97;3.40;;;14.10;58.20;;;;;;5003530;28;20038;-50
2021/09/30 11:19:00;;;;;;;4.95;3.60;;;14.10;58.40;;;;;;5006152;28;20490;-51
2021/09/30 11:21:31;;;;;;;4.32;3.40;;;14.10;58.00;;;;;;5000202;28;20100;-53
2021/09/30 11:23:58;;;;;;;6.43;3.92;;;14.10;58.10;;;;;;5002269;28;20557;-53
2021/09/30 11:26:25;;;;;;;4.68;3.70;;;14.10;58.00;;;;;;5001308;28;20034;-51
2021/09/30 11:28:55;;;;;;;5.10;3.60;;;14.10;57.90;;;;;;5005325;28;20738;-50
2021/09/30 11:31:29;;;;;;;4.38;3.72;;;14.10;57.90;;;;;;5000513;28;20033;-51
2021/09/30 11:33:59;;;;;;;6.43;3.70;;;14.10;57.80;;;;;;5007550;28;20091;-51
2021/09/30 11:36:40;;;;;;;4.23;3.83;;;14.10;57.80;;;;;;5002668;28;20029;-51
2021/09/30 11:39:07;;;;;;;6.00;3.72;;;14.10;57.80;;;;;;5005547;28;20057;-51
2021/09/30 11:41:38;;;;;;;4.10;3.63;;;14.10;58.40;;;;;;5003262;28;20036;-51
2021/09/30 11:44:05;;;;;;;5.38;4.07;;;14.10;57.70;;;;;;5001463;28;20041;-53
2021/09/30 11:46:37;;;;;;;5.07;3.50;;;14.00;57.70;;;;;;4999087;28;20087;-51
2021/09/30 11:49:06;;;;;;;4.25;3.55;;;14.00;57.70;;;;;;5003531;28;20029;-52
2021/09/30 11:51:35;;;;;;;4.72;3.72;;;14.00;57.70;;;;;;5002112;28;20042;-53
2021/09/30 11:54:02;;;;;;;4.78;3.30;;;14.00;57.60;;;;;;5001469;28;20029;-51
2021/09/30 11:56:28;;;;;;;4.30;3.30;;;14.00;57.50;;;;;;4999829;28;20103;-51
2021/09/30 11:59:06;;;;;;;6.88;3.60;;;14.10;57.60;;;;;;5000809;28;20028;-51
2021/09/30 12:01:37;;;;;;;3.95;3.10;;;14.10;57.60;;;;;;5000922;28;20099;-53
2021/09/30 12:04:04;;;;;;;4.13;3.38;;;14.10;57.50;;;;;;5001850;28;20687;-53
2021/09/30 12:06:44;;;;;;;5.35;3.42;;;14.10;57.50;;;;;;4996441;28;20041;-52
2021/09/30 12:09:12;;;;;;;6.55;3.53;;;14.10;57.70;;;;;;4996614;28;20062;-50
2021/09/30 12:11:39;;;;;;;4.07;3.33;;;14.10;57.60;;;;;;5002521;28;20037;-51
2021/09/30 12:14:08;;;;;;;4.43;3.63;;;14.10;57.60;;;;;;5004179;28;20029;-52
2021/09/30 12:16:51;;;;;;;4.68;3.38;;;14.10;57.70;;;;;;5000822;28;20494;-54
2021/09/30 12:19:31;;;;;;;4.72;3.22;;;14.10;57.60;;;;;;5000621;28;20087;-51
2021/09/30 12:21:58;;;;;;;7.00;4.13;;;14.10;57.30;;;;;;5002276;28;20091;-53
2021/09/30 12:24:25;;;;;;;4.45;3.17;;;14.10;57.30;;;;;;5002384;28;20163;-50
2021/09/30 12:26:51;;;;;;;3.45;3.10;;;14.10;57.60;;;;;;5005623;28;20036;-52
2021/09/30 12:29:18;;;;;;;3.83;3.08;;;14.10;57.50;;;;;;5000166;28;20048;-50
2021/09/30 12:31:44;;;;;;;4.22;3.45;;;14.10;57.60;;;;;;5008189;28;20504;-52
2021/09/30 12:34:26;;;;;;;6.22;3.28;;;14.10;57.50;;;;;;5008573;28;20764;-50
2021/09/30 12:36:51;;;;;;;4.15;3.67;;;14.10;57.30;;;;;;5008246;28;20038;-52
2021/09/30 12:39:32;;;;;;;4.78;3.50;;;14.10;57.40;;;;;;5013203;28;20057;-50
2021/09/30 12:42:15;;;;;;;3.83;3.42;;;14.10;57.20;;;;;;5011258;28;20053;-50
2021/09/30 12:44:47;;;;;;;5.38;3.60;;;14.10;57.20;;;;;;5008299;28;20030;-53
2021/09/30 12:47:38;;;;;;;3.40;3.10;;;14.10;57.30;;;;;;5006020;28;20501;-51
2021/09/30 12:50:08;;;;;;;4.95;3.60;;;14.10;57.30;;;;;;5004861;28;20854;-51
2021/09/30 12:52:36;;;;;;;4.70;3.65;;;14.10;57.20;;;;;;5007328;28;20211;-51
2021/09/30 12:55:05;;;;;;;6.80;3.67;;;14.10;57.50;;;;;;5008180;28;20903;-50
2021/09/30 12:57:32;;;;;;;4.10;3.50;;;14.10;57.60;;;;;;5007085;28;20034;-50
2021/09/30 13:00:08;;;;;;;4.32;3.53;;;14.10;57.70;;;;;;5007937;28;20030;-52
2021/09/30 13:02:34;;;;;;;4.97;3.65;;;14.10;57.70;;;;;;5007053;28;20033;-51
2021/09/30 13:05:00;;;;;;;5.25;3.83;;;14.10;57.60;;;;;;5003896;28;20045;-50
2021/09/30 13:07:40;;;;;;;3.88;3.40;;;14.10;57.50;;;;;;5001314;28;20630;-51
2021/09/30 13:10:06;;;;;;;3.63;3.20;;;14.20;57.20;;;;;;5003166;28;20052;-52
2021/09/30 13:12:32;;;;;;;3.78;3.40;;;14.20;57.80;;;;;;5006708;28;20029;-50
2021/09/30 13:14:58;;;;;;;3.65;3.08;;;14.20;57.10;;;;;;5007158;28;20524;-53
2021/09/30 13:17:28;;;;;;;4.03;3.30;;;14.20;57.10;;;;;;5004847;28;20045;-53
2021/09/30 13:19:58;;;;;;;6.30;3.80;;;14.20;57.10;;;;;;5008149;28;23811;-50
2021/09/30 13:22:33;;;;;;;5.00;3.15;;;14.20;57.00;;;;;;5010261;28;20389;-50
2021/09/30 13:25:03;;;;;;;5.18;3.75;;;14.20;56.90;;;;;;5003943;28;20036;-52
2021/09/30 13:27:34;;;;;;;3.80;3.40;;;14.20;57.00;;;;;;5011820;28;20079;-50
2021/09/30 13:30:01;;;;;;;4.50;3.40;;;14.20;56.90;;;;;;5009034;28;20175;-50
2021/09/30 13:32:27;;;;;;;4.75;3.22;;;14.20;56.90;;;;;;5007772;28;20461;-51
2021/09/30 13:34:55;;;;;;;3.88;3.38;;;14.20;56.90;;;;;;5000894;28;20038;-53
2021/09/30 13:37:21;;;;;;;3.90;3.15;;;14.20;57.00;;;;;;5003875;28;20034;-50
2021/09/30 13:39:49;;;;;;;4.65;3.30;;;14.20;56.90;;;;;;5005931;28;20451;-52
2021/09/30 13:42:15;;;;;;;3.65;3.20;;;14.20;56.80;;;;;;5011942;28;20120;-50
2021/09/30 13:44:41;;;;;;;3.92;3.13;;;14.20;56.80;;;;;;5007365;28;20546;-52
2021/09/30 13:47:07;;;;;;;3.50;3.20;;;14.20;56.80;;;;;;5004850;28;20765;-52
2021/09/30 13:49:33;;;;;;;4.88;3.28;;;14.20;56.90;;;;;;5007674;28;21011;-50
2021/09/30 13:51:59;;;;;;;4.68;3.15;;;14.20;57.00;;;;;;5006253;28;20046;-50
2021/09/30 13:54:25;;;;;;;7.35;3.40;;;14.30;56.90;;;;;;5005816;28;20065;-50
2021/09/30 13:56:50;;;;;;;4.05;3.22;;;14.30;56.90;;;;;;5000238;28;24336;-50
2021/09/30 13:59:16;;;;;;;3.30;3.00;;;14.30;56.90;;;;;;5001962;28;20534;-50
2021/09/30 14:01:42;;;;;;;5.53;3.10;;;14.30;56.90;;;;;;5005684;28;20081;-53
2021/09/30 14:04:07;;;;;;;3.90;3.08;;;14.30;57.00;;;;;;5005863;28;20572;-49
2021/09/30 14:06:33;;;;;;;4.13;3.30;;;14.30;57.00;;;;;;5004678;28;20081;-50
2021/09/30 14:08:59;;;;;;;6.53;3.30;;;14.30;56.70;;;;;;4997812;28;20042;-53
2021/09/30 14:11:25;;;;;;;3.17;2.72;;;14.40;56.70;;;;;;4998787;28;20030;-52
2021/09/30 14:13:53;;;;;;;3.72;3.22;;;14.30;56.30;;;;;;5004060;28;20022;-52
2021/09/30 14:16:23;;;;;;;4.35;2.97;;;14.30;56.30;;;;;;5004040;28;20064;-50
2021/09/30 14:18:50;;;;;;;4.57;3.20;;;14.30;56.20;;;;;;5003320;28;20029;-53
2021/09/30 14:21:16;;;;;;;3.95;3.15;;;14.30;56.50;;;;;;5002251;28;20145;-50
2021/09/30 14:23:43;;;;;;;3.97;3.42;;;14.30;56.50;;;;;;5007341;28;20044;-52
2021/09/30 14:26:08;;;;;;;4.80;3.20;;;14.30;56.70;;;;;;5009369;28;20026;-52
2021/09/30 14:28:35;;;;;;;3.10;2.80;;;14.30;56.90;;;;;;5007391;28;20043;-52
2021/09/30 14:31:01;;;;;;;3.95;3.05;;;14.30;56.90;;;;;;5004048;28;20030;-50
2021/09/30 14:33:29;;;;;;;3.03;2.80;;;14.30;56.90;;;;;;5007253;28;20841;-51
2021/09/30 14:35:55;;;;;;;3.22;2.90;;;14.30;56.90;;;;;;5004475;28;20025;-51
2021/09/30 14:38:22;;;;;;;3.13;2.70;;;14.30;56.90;;;;;;5003806;28;20046;-50
2021/09/30 14:40:50;;;;;;;3.63;2.90;;;14.30;56.90;;;;;;5009275;28;20017;-49
2021/09/30 14:43:20;;;;;;;3.15;2.80;;;14.30;56.90;;;;;;5005754;28;20057;-50
2021/09/30 14:45:47;;;;;;;3.47;2.60;;;14.30;56.70;;;;;;5003584;28;20553;-51
2021/09/30 14:48:13;;;;;;;3.25;2.78;;;14.30;56.70;;;;;;5004333;28;20136;-50
2021/09/30 14:50:39;;;;;;;4.57;3.15;;;14.30;56.60;;;;;;5008406;28;20087;-50
2021/09/30 14:53:05;;;;;;;4.78;2.90;;;14.30;56.50;;;;;;5009971;28;20038;-49
2021/09/30 14:55:31;;;;;;;3.63;2.95;;;14.30;56.50;;;;;;5006406;28;20039;-50
2021/09/30 14:57:57;;;;;;;4.82;2.90;;;14.30;56.50;;;;;;5006512;28;20041;-49
2021/09/30 15:00:22;;;;;;;3.03;2.72;;;14.30;56.30;;;;;;5005987;28;20026;-52
2021/09/30 15:02:48;;;;;;;3.28;2.70;;;14.30;56.30;;;;;;5002044;28;20025;-49
2021/09/30 15:05:14;;;;;;;3.28;2.97;;;14.30;56.30;;;;;;5007547;28;20112;-50
2021/09/30 15:07:39;;;;;;;4.72;3.00;;;14.30;56.20;;;;;;5005483;28;20112;-50
2021/09/30 15:10:06;;;;;;;4.13;2.90;;;14.30;56.10;;;;;;5009456;28;20033;-49
2021/09/30 15:12:32;;;;;;;3.53;2.72;;;14.30;56.20;;;;;;5012635;28;20505;-50
2021/09/30 15:14:58;;;;;;;3.75;2.88;;;14.30;56.20;;;;;;5008979;28;20034;-52
2021/09/30 15:22:37;;;;;;;4.28;2.70;;;14.30;56.30;;;;;;5006929;28;20025;-52
2021/09/30 15:25:05;;;;;;;4.00;3.00;;;14.30;56.40;;;;;;5013690;28;20128;-50
2021/09/30 15:27:31;;;;;;;3.95;2.95;;;14.30;56.30;;;;;;5009894;28;20056;-49
2021/09/30 15:29:57;;;;;;;3.58;3.28;;;14.30;56.60;;;;;;5015384;28;20103;-50
2021/09/30 15:32:23;;;;;;;3.58;3.10;;;14.30;56.60;;;;;;5012976;28;20033;-49
2021/09/30 15:34:49;;;;;;;3.33;3.03;;;14.30;56.70;;;;;;5016528;28;20038;-50
2021/09/30 15:37:16;;;;;;;4.00;2.95;;;14.30;56.80;;;;;;5010798;28;20037;-49
2021/09/30 15:39:41;;;;;;;5.25;3.60;;;14.30;57.00;;;;;;5017235;28;20473;-50
2021/09/30 15:42:11;;;;;;;4.55;3.30;;;14.30;57.00;;;;;;5018744;28;20112;-50
2021/09/30 15:44:37;;;;;;;3.63;3.03;;;14.30;57.20;;;;;;5016335;28;20084;-50
2021/09/30 15:47:03;;;;;;;4.22;3.28;;;14.30;57.20;;;;;;5022452;28;20037;-49
2021/09/30 15:49:29;;;;;;;4.10;3.03;;;14.30;57.20;;;;;;5018568;28;20038;-50
2021/09/30 15:51:55;;;;;;;3.40;3.03;;;14.30;57.40;;;;;;5022286;28;20111;-50
2021/09/30 15:54:21;;;;;;;4.63;3.30;;;14.30;57.40;;;;;;5018500;28;20056;-49
2021/09/30 15:56:46;;;;;;;2.97;2.67;;;14.30;57.50;;;;;;5023882;28;20442;-49
2021/09/30 15:59:12;;;;;;;4.90;3.20;;;14.30;57.60;;;;;;5020600;28;20029;-49
2021/09/30 16:01:38;;;;;;;4.43;3.30;;;14.30;57.60;;;;;;5019894;28;20064;-49
2021/09/30 16:04:03;;;;;;;5.00;3.20;;;14.30;57.60;;;;;;5022991;28;20496;-49